sensor_id;sensor_type;location;lat;lon;timestamp;pressure;altitude;pressure_sealevel;temperature;humidity
65019;BME280;66069;51.164;-114.452;2022-12-31T00:01:15;86131.06;;;17.77;41.86
65019;BME280;66069;51.164;-114.452;2022-12-31T00:03:41;86126.03;;;17.79;41.78
65019;BME280;66069;51.164;-114.452;2022-12-31T00:08:45;86133.09;;;17.82;41.85
65019;BME280;66069;51.164;-114.452;2022-12-31T00:11:12;86101.75;;;17.62;41.79
65019;BME280;66069;51.164;-114.452;2022-12-31T00:13:38;86105.44;;;17.65;41.81
65019;BME280;66069;51.164;-114.452;2022-12-31T00:16:11;86124.72;;;17.84;41.86
65019;BME280;66069;51.164;-114.452;2022-12-31T00:18:37;86126.63;;;17.83;41.82
65019;BME280;66069;51.164;-114.452;2022-12-31T00:21:07;86133.41;;;17.84;41.94
65019;BME280;66069;51.164;-114.452;2022-12-31T00:23:35;86139.88;;;17.83;41.95
65019;BME280;66069;51.164;-114.452;2022-12-31T00:26:10;86114.56;;;17.73;41.80
65019;BME280;66069;51.164;-114.452;2022-12-31T00:28:37;86143.41;;;17.89;41.83
65019;BME280;66069;51.164;-114.452;2022-12-31T00:31:09;86136.19;;;17.90;41.82
65019;BME280;66069;51.164;-114.452;2022-12-31T00:33:36;86125.59;;;17.90;41.76
65019;BME280;66069;51.164;-114.452;2022-12-31T00:36:09;86130.16;;;17.89;41.89
65019;BME280;66069;51.164;-114.452;2022-12-31T00:38:36;86138.41;;;17.91;41.93
65019;BME280;66069;51.164;-114.452;2022-12-31T00:41:04;86130.44;;;17.91;41.72
65019;BME280;66069;51.164;-114.452;2022-12-31T00:43:31;86129.44;;;17.89;41.89
65019;BME280;66069;51.164;-114.452;2022-12-31T00:45:58;86136.94;;;17.90;41.99
65019;BME280;66069;51.164;-114.452;2022-12-31T00:48:24;86118.69;;;17.74;41.99
65019;BME280;66069;51.164;-114.452;2022-12-31T00:50:52;86133.53;;;17.90;41.92
65019;BME280;66069;51.164;-114.452;2022-12-31T00:53:19;86142.97;;;17.91;41.85
65019;BME280;66069;51.164;-114.452;2022-12-31T00:55:46;86143.69;;;17.91;41.80
65019;BME280;66069;51.164;-114.452;2022-12-31T00:58:12;86137.06;;;17.87;41.85
65019;BME280;66069;51.164;-114.452;2022-12-31T01:00:39;86144.16;;;17.90;41.92
65019;BME280;66069;51.164;-114.452;2022-12-31T01:03:06;86127.22;;;17.78;41.64
65019;BME280;66069;51.164;-114.452;2022-12-31T01:05:33;86131.31;;;17.88;41.83
65019;BME280;66069;51.164;-114.452;2022-12-31T01:08:00;86136.47;;;17.92;41.67
65019;BME280;66069;51.164;-114.452;2022-12-31T01:10:27;86134.56;;;17.92;41.83
65019;BME280;66069;51.164;-114.452;2022-12-31T01:13:12;86139.13;;;17.92;41.83
65019;BME280;66069;51.164;-114.452;2022-12-31T01:15:39;86139.56;;;17.90;41.75
65019;BME280;66069;51.164;-114.452;2022-12-31T01:18:06;86139.56;;;17.90;41.97
65019;BME280;66069;51.164;-114.452;2022-12-31T01:20:38;86139.72;;;17.87;41.51
65019;BME280;66069;51.164;-114.452;2022-12-31T01:23:05;86141.03;;;17.91;41.97
65019;BME280;66069;51.164;-114.452;2022-12-31T01:25:39;86148.25;;;17.91;41.96
65019;BME280;66069;51.164;-114.452;2022-12-31T01:28:07;86129.28;;;17.83;41.70
65019;BME280;66069;51.164;-114.452;2022-12-31T01:30:37;86138.84;;;17.90;41.97
65019;BME280;66069;51.164;-114.452;2022-12-31T01:33:04;86141.91;;;17.88;41.89
65019;BME280;66069;51.164;-114.452;2022-12-31T01:35:33;86144.56;;;17.88;41.97
65019;BME280;66069;51.164;-114.452;2022-12-31T01:38:00;86133.97;;;17.88;41.92
65019;BME280;66069;51.164;-114.452;2022-12-31T01:40:27;86136.94;;;17.81;42.00
65019;BME280;66069;51.164;-114.452;2022-12-31T01:42:55;86135.59;;;17.86;41.85
65019;BME280;66069;51.164;-114.452;2022-12-31T01:45:23;86128.69;;;17.79;41.91
65019;BME280;66069;51.164;-114.452;2022-12-31T01:47:54;86130.44;;;17.82;41.75
65019;BME280;66069;51.164;-114.452;2022-12-31T01:50:29;86128.09;;;17.84;41.80
65019;BME280;66069;51.164;-114.452;2022-12-31T01:52:59;86135.75;;;17.82;41.82
65019;BME280;66069;51.164;-114.452;2022-12-31T01:58:32;86129.16;;;17.78;41.83
65019;BME280;66069;51.164;-114.452;2022-12-31T02:00:59;86135.91;;;17.79;41.74
65019;BME280;66069;51.164;-114.452;2022-12-31T02:03:27;86096.88;;;17.61;41.51
65019;BME280;66069;51.164;-114.452;2022-12-31T02:06:17;86120.47;;;17.77;41.83
65019;BME280;66069;51.164;-114.452;2022-12-31T02:08:45;86126.19;;;17.75;41.69
65019;BME280;66069;51.164;-114.452;2022-12-31T02:11:29;86127.22;;;17.78;41.56
65019;BME280;66069;51.164;-114.452;2022-12-31T02:14:04;86120.72;;;17.70;41.68
65019;BME280;66069;51.164;-114.452;2022-12-31T02:22:40;86130.88;;;17.81;41.58
65019;BME280;66069;51.164;-114.452;2022-12-31T02:25:35;86140.75;;;17.80;41.73
65019;BME280;66069;51.164;-114.452;2022-12-31T02:30:39;86136.66;;;17.79;41.90
65019;BME280;66069;51.164;-114.452;2022-12-31T02:33:23;86126.91;;;17.76;41.92
65019;BME280;66069;51.164;-114.452;2022-12-31T02:36:10;86127.97;;;17.79;41.95
65019;BME280;66069;51.164;-114.452;2022-12-31T02:38:43;86126.34;;;17.72;41.88
65019;BME280;66069;51.164;-114.452;2022-12-31T02:41:17;86130.31;;;17.77;41.89
65019;BME280;66069;51.164;-114.452;2022-12-31T02:44:23;86139.75;;;17.78;41.78
65019;BME280;66069;51.164;-114.452;2022-12-31T03:00:44;86127.06;;;17.82;41.87
65019;BME280;66069;51.164;-114.452;2022-12-31T03:03:30;86136.19;;;17.81;42.01
65019;BME280;66069;51.164;-114.452;2022-12-31T03:05:58;86135.75;;;17.82;42.05
65019;BME280;66069;51.164;-114.452;2022-12-31T03:08:26;86133.41;;;17.84;41.99
65019;BME280;66069;51.164;-114.452;2022-12-31T03:10:53;86138.25;;;17.86;41.93
65019;BME280;66069;51.164;-114.452;2022-12-31T03:13:22;86121.34;;;17.83;42.01
65019;BME280;66069;51.164;-114.452;2022-12-31T03:15:49;86135.47;;;17.89;42.11
65019;BME280;66069;51.164;-114.452;2022-12-31T03:18:17;86129.72;;;17.91;41.92
65019;BME280;66069;51.164;-114.452;2022-12-31T03:21:11;86131.63;;;17.90;42.10
65019;BME280;66069;51.164;-114.452;2022-12-31T03:23:56;86135.47;;;17.89;42.10
65019;BME280;66069;51.164;-114.452;2022-12-31T03:26:40;86129.84;;;17.87;42.09
65019;BME280;66069;51.164;-114.452;2022-12-31T03:29:07;86138.41;;;17.91;42.01
65019;BME280;66069;51.164;-114.452;2022-12-31T03:31:33;86135.28;;;17.93;42.16
65019;BME280;66069;51.164;-114.452;2022-12-31T03:33:59;86140.59;;;17.93;42.05
65019;BME280;66069;51.164;-114.452;2022-12-31T03:36:26;86129.84;;;17.87;42.09
65019;BME280;66069;51.164;-114.452;2022-12-31T03:38:52;86140.44;;;17.96;42.10
65019;BME280;66069;51.164;-114.452;2022-12-31T03:41:18;86128.66;;;17.97;42.16
65019;BME280;66069;51.164;-114.452;2022-12-31T03:43:45;86142.50;;;17.92;42.11
65019;BME280;66069;51.164;-114.452;2022-12-31T03:46:11;86141.91;;;17.97;42.17
65019;BME280;66069;51.164;-114.452;2022-12-31T03:48:37;86140.00;;;17.98;42.11
65019;BME280;66069;51.164;-114.452;2022-12-31T03:51:04;86133.38;;;17.93;42.12
65019;BME280;66069;51.164;-114.452;2022-12-31T03:53:31;86138.84;;;17.90;42.19
65019;BME280;66069;51.164;-114.452;2022-12-31T03:55:59;86138.97;;;17.95;42.31
65019;BME280;66069;51.164;-114.452;2022-12-31T03:58:25;86146.50;;;17.97;42.19
65019;BME280;66069;51.164;-114.452;2022-12-31T04:00:54;86140.31;;;17.91;42.29
65019;BME280;66069;51.164;-114.452;2022-12-31T04:03:21;86148.53;;;17.93;42.38
65019;BME280;66069;51.164;-114.452;2022-12-31T04:05:56;86141.31;;;17.93;42.24
65019;BME280;66069;51.164;-114.452;2022-12-31T04:08:23;86123.38;;;17.79;42.33
65019;BME280;66069;51.164;-114.452;2022-12-31T04:10:49;86147.81;;;17.92;42.06
65019;BME280;66069;51.164;-114.452;2022-12-31T04:13:15;86138.13;;;17.89;42.11
65019;BME280;66069;51.164;-114.452;2022-12-31T04:15:42;86146.19;;;17.95;42.02
65019;BME280;66069;51.164;-114.452;2022-12-31T04:18:08;86138.97;;;17.95;41.94
65019;BME280;66069;51.164;-114.452;2022-12-31T04:20:34;86135.88;;;17.97;42.09
65019;BME280;66069;51.164;-114.452;2022-12-31T04:23:01;86138.53;;;17.97;42.11
65019;BME280;66069;51.164;-114.452;2022-12-31T04:25:27;86138.53;;;17.97;42.10
65019;BME280;66069;51.164;-114.452;2022-12-31T04:27:53;86121.47;;;17.89;42.07
65019;BME280;66069;51.164;-114.452;2022-12-31T04:30:20;86121.31;;;17.92;42.19
65019;BME280;66069;51.164;-114.452;2022-12-31T04:32:46;86130.56;;;17.97;42.21
65019;BME280;66069;51.164;-114.452;2022-12-31T04:35:12;86122.63;;;17.97;42.20
65019;BME280;66069;51.164;-114.452;2022-12-31T04:37:38;86120.44;;;17.95;42.22
65019;BME280;66069;51.164;-114.452;2022-12-31T04:40:06;86112.34;;;17.90;41.95
65019;BME280;66069;51.164;-114.452;2022-12-31T04:42:33;86129.13;;;17.96;42.13
65019;BME280;66069;51.164;-114.452;2022-12-31T04:44:59;86126.47;;;17.96;42.12
65019;BME280;66069;51.164;-114.452;2022-12-31T04:47:26;86121.03;;;17.90;42.14
65019;BME280;66069;51.164;-114.452;2022-12-31T04:49:52;86135.56;;;17.95;42.31
65019;BME280;66069;51.164;-114.452;2022-12-31T04:52:19;86132.63;;;17.93;42.06
65019;BME280;66069;51.164;-114.452;2022-12-31T04:54:45;86143.25;;;17.93;42.18
65019;BME280;66069;51.164;-114.452;2022-12-31T04:57:11;86133.22;;;17.88;42.18
65019;BME280;66069;51.164;-114.452;2022-12-31T04:59:38;86142.97;;;17.91;42.00
65019;BME280;66069;51.164;-114.452;2022-12-31T05:02:04;86130.00;;;17.84;42.18
65019;BME280;66069;51.164;-114.452;2022-12-31T05:04:30;86132.66;;;17.84;42.07
65019;BME280;66069;51.164;-114.452;2022-12-31T05:06:57;86137.53;;;17.85;42.17
65019;BME280;66069;51.164;-114.452;2022-12-31T05:09:23;86120.75;;;17.79;42.17
65019;BME280;66069;51.164;-114.452;2022-12-31T05:11:52;86129.56;;;17.85;42.10
65019;BME280;66069;51.164;-114.452;2022-12-31T05:14:18;86126.63;;;17.83;42.00
65019;BME280;66069;51.164;-114.452;2022-12-31T05:16:45;86127.78;;;17.82;41.95
65019;BME280;66069;51.164;-114.452;2022-12-31T05:19:11;86128.97;;;17.81;41.95
65019;BME280;66069;51.164;-114.452;2022-12-31T05:21:37;86120.00;;;17.79;41.97
65019;BME280;66069;51.164;-114.452;2022-12-31T05:24:04;86130.59;;;17.79;41.90
65019;BME280;66069;51.164;-114.452;2022-12-31T05:26:30;86107.03;;;17.62;42.01
65019;BME280;66069;51.164;-114.452;2022-12-31T05:28:57;86131.06;;;17.77;42.08
65019;BME280;66069;51.164;-114.452;2022-12-31T05:31:25;86133.41;;;17.75;41.89
65019;BME280;66069;51.164;-114.452;2022-12-31T05:33:52;86137.97;;;17.74;41.85
65019;BME280;66069;51.164;-114.452;2022-12-31T05:36:18;86135.88;;;17.69;41.94
65019;BME280;66069;51.164;-114.452;2022-12-31T05:38:45;86138.25;;;17.67;41.94
65019;BME280;66069;51.164;-114.452;2022-12-31T05:41:11;86141.19;;;17.69;41.95
65019;BME280;66069;51.164;-114.452;2022-12-31T05:43:37;86135.16;;;17.69;41.90
65019;BME280;66069;51.164;-114.452;2022-12-31T05:46:04;86135.59;;;17.67;41.96
65019;BME280;66069;51.164;-114.452;2022-12-31T05:48:30;86136.50;;;17.64;41.91
65019;BME280;66069;51.164;-114.452;2022-12-31T05:50:57;86137.97;;;17.65;41.95
65019;BME280;66069;51.164;-114.452;2022-12-31T05:53:23;86132.34;;;17.63;41.90
65019;BME280;66069;51.164;-114.452;2022-12-31T05:55:50;86135.72;;;17.64;41.96
65019;BME280;66069;51.164;-114.452;2022-12-31T05:58:16;86140.31;;;17.63;41.91
65019;BME280;66069;51.164;-114.452;2022-12-31T06:00:43;86138.56;;;17.60;41.95
65019;BME280;66069;51.164;-114.452;2022-12-31T06:03:10;86123.53;;;17.48;41.84
65019;BME280;66069;51.164;-114.452;2022-12-31T06:05:41;86147.81;;;17.56;41.81
65019;BME280;66069;51.164;-114.452;2022-12-31T06:08:09;86141.94;;;17.52;41.90
65019;BME280;66069;51.164;-114.452;2022-12-31T06:10:35;86153.13;;;17.56;41.90
65019;BME280;66069;51.164;-114.452;2022-12-31T06:13:01;86150.91;;;17.54;41.82
65019;BME280;66069;51.164;-114.452;2022-12-31T06:15:28;86156.22;;;17.54;41.69
65019;BME280;66069;51.164;-114.452;2022-12-31T06:17:54;86136.78;;;17.39;41.87
65019;BME280;66069;51.164;-114.452;2022-12-31T06:20:20;86142.66;;;17.43;41.80
65019;BME280;66069;51.164;-114.452;2022-12-31T06:22:47;86160.91;;;17.50;41.82
65019;BME280;66069;51.164;-114.452;2022-12-31T06:25:13;86160.63;;;17.48;41.82
65019;BME280;66069;51.164;-114.452;2022-12-31T06:27:40;86154.75;;;17.44;41.76
65019;BME280;66069;51.164;-114.452;2022-12-31T06:30:07;86157.69;;;17.46;41.75
65019;BME280;66069;51.164;-114.452;2022-12-31T06:32:33;86155.47;;;17.44;41.79
65019;BME280;66069;51.164;-114.452;2022-12-31T06:35:00;86167.97;;;17.44;41.81
65019;BME280;66069;51.164;-114.452;2022-12-31T06:37:26;86158.56;;;17.43;41.84
65019;BME280;66069;51.164;-114.452;2022-12-31T06:39:52;86136.34;;;17.31;41.64
65019;BME280;66069;51.164;-114.452;2022-12-31T06:42:19;86151.38;;;17.34;41.77
65019;BME280;66069;51.164;-114.452;2022-12-31T06:44:45;86153.84;;;17.38;41.70
65019;BME280;66069;51.164;-114.452;2022-12-31T06:47:11;86156.94;;;17.36;41.74
65019;BME280;66069;51.164;-114.452;2022-12-31T06:49:37;86154.75;;;17.35;41.70
65019;BME280;66069;51.164;-114.452;2022-12-31T06:52:05;86152.41;;;17.28;41.70
65019;BME280;66069;51.164;-114.452;2022-12-31T06:54:32;86156.97;;;17.27;41.60
65019;BME280;66069;51.164;-114.452;2022-12-31T06:56:58;86165.47;;;17.31;41.68
65019;BME280;66069;51.164;-114.452;2022-12-31T06:59:27;86161.81;;;17.29;41.74
65019;BME280;66069;51.164;-114.452;2022-12-31T07:13:24;86172.97;;;17.23;41.67
65019;BME280;66069;51.164;-114.452;2022-12-31T07:16:09;86169.59;;;17.23;41.72
65019;BME280;66069;51.164;-114.452;2022-12-31T07:21:10;86167.81;;;17.20;41.78
65019;BME280;66069;51.164;-114.452;2022-12-31T07:23:39;86170.19;;;17.18;41.69
65019;BME280;66069;51.164;-114.452;2022-12-31T07:44:06;86173.97;;;17.08;41.72
65019;BME280;66069;51.164;-114.452;2022-12-31T07:46:58;86175.16;;;17.07;41.74
65019;BME280;66069;51.164;-114.452;2022-12-31T07:49:26;86172.66;;;17.03;41.67
65019;BME280;66069;51.164;-114.452;2022-12-31T07:51:53;86159.09;;;16.92;41.54
65019;BME280;66069;51.164;-114.452;2022-12-31T07:54:20;86176.91;;;17.01;41.72
65019;BME280;66069;51.164;-114.452;2022-12-31T07:56:48;86161.47;;;16.90;41.71
65019;BME280;66069;51.164;-114.452;2022-12-31T07:59:46;86180.72;;;17.00;41.67
65019;BME280;66069;51.164;-114.452;2022-12-31T08:02:38;86177.06;;;16.97;41.57
65019;BME280;66069;51.164;-114.452;2022-12-31T08:05:45;86177.50;;;16.95;41.74
65019;BME280;66069;51.164;-114.452;2022-12-31T08:08:33;86171.44;;;16.95;41.70
65019;BME280;66069;51.164;-114.452;2022-12-31T08:13:52;86173.06;;;16.92;41.55
65019;BME280;66069;51.164;-114.452;2022-12-31T08:16:21;86163.22;;;16.84;41.62
65019;BME280;66069;51.164;-114.452;2022-12-31T08:18:47;86163.63;;;16.82;41.72
65019;BME280;66069;51.164;-114.452;2022-12-31T08:24:23;86171.16;;;16.84;41.59
65019;BME280;66069;51.164;-114.452;2022-12-31T08:32:35;86177.19;;;16.84;41.60
65019;BME280;66069;51.164;-114.452;2022-12-31T08:38:24;86184.81;;;16.82;41.96
65019;BME280;66069;51.164;-114.452;2022-12-31T08:41:06;86193.19;;;16.81;41.70
65019;BME280;66069;51.164;-114.452;2022-12-31T08:46:53;86194.81;;;16.78;41.66
65019;BME280;66069;51.164;-114.452;2022-12-31T08:49:25;86195.97;;;16.77;41.55
65019;BME280;66069;51.164;-114.452;2022-12-31T08:51:52;86199.03;;;16.76;41.64
65019;BME280;66069;51.164;-114.452;2022-12-31T08:54:19;86203.59;;;16.75;41.54
65019;BME280;66069;51.164;-114.452;2022-12-31T08:57:08;86205.97;;;16.73;41.71
65019;BME280;66069;51.164;-114.452;2022-12-31T08:59:56;86203.75;;;16.72;41.72
65019;BME280;66069;51.164;-114.452;2022-12-31T09:02:43;86196.22;;;16.70;41.64
65019;BME280;66069;51.164;-114.452;2022-12-31T09:13:37;86204.28;;;16.66;41.70
65019;BME280;66069;51.164;-114.452;2022-12-31T09:16:16;86209.25;;;16.64;41.65
65019;BME280;66069;51.164;-114.452;2022-12-31T09:18:44;86210.44;;;16.63;41.70
65019;BME280;66069;51.164;-114.452;2022-12-31T09:21:13;86222.19;;;16.62;41.73
65019;BME280;66069;51.164;-114.452;2022-12-31T09:23:40;86222.66;;;16.61;41.67
65019;BME280;66069;51.164;-114.452;2022-12-31T09:37:09;86219.34;;;16.48;41.54
65019;BME280;66069;51.164;-114.452;2022-12-31T09:39:42;86216.38;;;16.46;41.67
65019;BME280;66069;51.164;-114.452;2022-12-31T09:47:34;86254.34;;;16.52;41.62
65019;BME280;66069;51.164;-114.452;2022-12-31T09:55:39;86257.56;;;16.47;41.66
65019;BME280;66069;51.164;-114.452;2022-12-31T10:26:43;86282.91;;;16.35;41.69
65019;BME280;66069;51.164;-114.452;2022-12-31T10:32:10;86286.41;;;16.32;41.71
65019;BME280;66069;51.164;-114.452;2022-12-31T10:37:39;86287.28;;;16.29;41.72
65019;BME280;66069;51.164;-114.452;2022-12-31T10:55:09;86300.03;;;16.21;41.71
65019;BME280;66069;51.164;-114.452;2022-12-31T11:00:23;86299.25;;;16.21;41.60
65019;BME280;66069;51.164;-114.452;2022-12-31T11:11:41;86312.31;;;16.15;41.63
65019;BME280;66069;51.164;-114.452;2022-12-31T11:14:20;86308.19;;;16.14;41.63
65019;BME280;66069;51.164;-114.452;2022-12-31T11:22:09;86311.69;;;16.11;41.51
65019;BME280;66069;51.164;-114.452;2022-12-31T11:37:46;86318.41;;;16.03;41.48
65019;BME280;66069;51.164;-114.452;2022-12-31T11:40:42;86297.16;;;15.94;41.47
65019;BME280;66069;51.164;-114.452;2022-12-31T11:43:43;86307.81;;;16.03;41.58
65019;BME280;66069;51.164;-114.452;2022-12-31T11:46:25;86314.69;;;16.00;41.72
65019;BME280;66069;51.164;-114.452;2022-12-31T11:52:23;86319.69;;;15.98;41.67
65019;BME280;66069;51.164;-114.452;2022-12-31T11:57:39;86315.97;;;15.96;41.76
65019;BME280;66069;51.164;-114.452;2022-12-31T12:00:17;86317.13;;;15.95;41.60
65019;BME280;66069;51.164;-114.452;2022-12-31T12:02:47;86307.88;;;15.90;41.61
65019;BME280;66069;51.164;-114.452;2022-12-31T12:05:16;86321.38;;;15.92;41.54
65019;BME280;66069;51.164;-114.452;2022-12-31T12:07:46;86323.28;;;15.92;41.74
65019;BME280;66069;51.164;-114.452;2022-12-31T12:10:31;86317.69;;;15.89;41.62
65019;BME280;66069;51.164;-114.452;2022-12-31T12:12:58;86326.03;;;15.88;41.86
65019;BME280;66069;51.164;-114.452;2022-12-31T12:15:32;86331.75;;;15.86;41.49
65019;BME280;66069;51.164;-114.452;2022-12-31T12:18:12;86327.22;;;15.87;41.68
65019;BME280;66069;51.164;-114.452;2022-12-31T12:20:39;86327.66;;;15.85;41.59
65019;BME280;66069;51.164;-114.452;2022-12-31T12:23:16;86328.81;;;15.84;41.60
65019;BME280;66069;51.164;-114.452;2022-12-31T12:25:49;86328.50;;;15.82;41.56
65019;BME280;66069;51.164;-114.452;2022-12-31T12:30:51;86330.09;;;15.80;41.52
65019;BME280;66069;51.164;-114.452;2022-12-31T12:33:19;86325.34;;;15.75;41.49
65019;BME280;66069;51.164;-114.452;2022-12-31T12:35:46;86318.81;;;15.67;41.47
65019;BME280;66069;51.164;-114.452;2022-12-31T12:38:21;86300.22;;;15.57;41.57
65019;BME280;66069;51.164;-114.452;2022-12-31T12:40:53;86341.09;;;15.78;41.52
65019;BME280;66069;51.164;-114.452;2022-12-31T12:43:23;86336.34;;;15.73;41.69
65019;BME280;66069;51.164;-114.452;2022-12-31T12:45:53;86340.91;;;15.73;41.59
65019;BME280;66069;51.164;-114.452;2022-12-31T12:50:55;86345.44;;;15.72;41.60
65019;BME280;66069;51.164;-114.452;2022-12-31T12:56:18;86358.44;;;15.79;41.39
65019;BME280;66069;51.164;-114.452;2022-12-31T13:07:42;86357.66;;;15.92;41.58
65019;BME280;66069;51.164;-114.452;2022-12-31T13:15:48;86366.22;;;16.18;41.93
65019;BME280;66069;51.164;-114.452;2022-12-31T13:24:19;86374.59;;;16.38;42.28
65019;BME280;66069;51.164;-114.452;2022-12-31T13:27:18;86361.88;;;16.46;42.43
65019;BME280;66069;51.164;-114.452;2022-12-31T13:29:48;86358.38;;;16.49;42.65
65019;BME280;66069;51.164;-114.452;2022-12-31T13:32:38;86333.47;;;16.37;42.68
65019;BME280;66069;51.164;-114.452;2022-12-31T13:37:46;86364.75;;;16.73;42.81
65019;BME280;66069;51.164;-114.452;2022-12-31T13:40:24;86367.88;;;16.81;42.95
65019;BME280;66069;51.164;-114.452;2022-12-31T13:45:27;86371.91;;;16.94;42.94
65019;BME280;66069;51.164;-114.452;2022-12-31T13:48:04;86381.50;;;17.01;42.88
65019;BME280;66069;51.164;-114.452;2022-12-31T13:51:07;86372.88;;;17.10;43.05
65019;BME280;66069;51.164;-114.452;2022-12-31T13:56:47;86373.22;;;17.21;43.02
65019;BME280;66069;51.164;-114.452;2022-12-31T13:59:25;86379.28;;;17.31;42.45
65019;BME280;66069;51.164;-114.452;2022-12-31T14:04:53;86393.63;;;17.42;42.70
65019;BME280;66069;51.164;-114.452;2022-12-31T14:07:46;86399.09;;;17.48;42.94
65019;BME280;66069;51.164;-114.452;2022-12-31T14:10:15;86399.56;;;17.56;43.02
65019;BME280;66069;51.164;-114.452;2022-12-31T14:20:40;86411.44;;;17.73;42.40
65019;BME280;66069;51.164;-114.452;2022-12-31T14:23:19;86418.81;;;17.78;42.48
65019;BME280;66069;51.164;-114.452;2022-12-31T14:25:56;86417.50;;;17.83;42.42
65019;BME280;66069;51.164;-114.452;2022-12-31T14:28:38;86424.56;;;17.86;42.15
65019;BME280;66069;51.164;-114.452;2022-12-31T14:31:29;86427.09;;;17.89;42.14
65019;BME280;66069;51.164;-114.452;2022-12-31T14:34:18;86430.78;;;17.92;42.26
65019;BME280;66069;51.164;-114.452;2022-12-31T14:40:39;86422.09;;;18.00;42.37
65019;BME280;66069;51.164;-114.452;2022-12-31T14:46:12;86426.81;;;18.06;42.14
65019;BME280;66069;51.164;-114.452;2022-12-31T14:51:20;86429.34;;;18.09;42.00
65019;BME280;66069;51.164;-114.452;2022-12-31T14:53:51;86436.13;;;18.10;41.99
65019;BME280;66069;51.164;-114.452;2022-12-31T14:56:42;86425.22;;;18.08;41.87
65019;BME280;66069;51.164;-114.452;2022-12-31T14:59:25;86442.03;;;18.14;42.00
65019;BME280;66069;51.164;-114.452;2022-12-31T15:01:52;86439.38;;;18.14;41.86
65019;BME280;66069;51.164;-114.452;2022-12-31T15:04:33;86446.16;;;18.15;41.93
65019;BME280;66069;51.164;-114.452;2022-12-31T15:07:29;86441.44;;;18.10;41.78
65019;BME280;66069;51.164;-114.452;2022-12-31T15:10:13;86454.84;;;18.16;42.00
65019;BME280;66069;51.164;-114.452;2022-12-31T15:21:28;86455.47;;;18.20;41.78
65019;BME280;66069;51.164;-114.452;2022-12-31T15:23:56;86453.56;;;18.20;41.86
65019;BME280;66069;51.164;-114.452;2022-12-31T15:26:26;86462.66;;;18.19;41.65
65019;BME280;66069;51.164;-114.452;2022-12-31T15:29:22;86452.81;;;18.20;41.84
65019;BME280;66069;51.164;-114.452;2022-12-31T15:31:49;86453.97;;;18.19;41.67
65019;BME280;66069;51.164;-114.452;2022-12-31T15:36:56;86463.56;;;18.16;41.68
65019;BME280;66069;51.164;-114.452;2022-12-31T15:39:37;86464.28;;;18.17;41.70
65019;BME280;66069;51.164;-114.452;2022-12-31T15:42:20;86457.50;;;18.16;41.56
65019;BME280;66069;51.164;-114.452;2022-12-31T15:45:03;86466.31;;;18.13;41.58
65019;BME280;66069;51.164;-114.452;2022-12-31T15:47:36;86470.91;;;18.12;41.57
65019;BME280;66069;51.164;-114.452;2022-12-31T15:50:11;86466.03;;;18.11;41.56
65019;BME280;66069;51.164;-114.452;2022-12-31T15:58:06;86475.00;;;18.04;41.48
65019;BME280;66069;51.164;-114.452;2022-12-31T16:00:42;86473.81;;;18.05;41.50
65019;BME280;66069;51.164;-114.452;2022-12-31T16:03:23;86474.28;;;18.03;41.37
65019;BME280;66069;51.164;-114.452;2022-12-31T16:05:55;86491.38;;;18.02;41.47
65019;BME280;66069;51.164;-114.452;2022-12-31T16:08:35;86485.00;;;18.00;41.33
65019;BME280;66069;51.164;-114.452;2022-12-31T16:11:04;86471.44;;;17.89;41.53
65019;BME280;66069;51.164;-114.452;2022-12-31T16:13:35;86478.22;;;17.90;41.38
65019;BME280;66069;51.164;-114.452;2022-12-31T16:16:28;86488.97;;;17.95;41.26
65019;BME280;66069;51.164;-114.452;2022-12-31T16:18:54;86501.47;;;17.95;41.32
65019;BME280;66069;51.164;-114.452;2022-12-31T16:21:44;86497.78;;;17.92;41.34
65019;BME280;66069;51.164;-114.452;2022-12-31T16:24:31;86503.53;;;17.91;41.20
65019;BME280;66069;51.164;-114.452;2022-12-31T16:27:06;86511.94;;;17.89;41.28
65019;BME280;66069;51.164;-114.452;2022-12-31T16:29:35;86498.50;;;17.84;40.93
65019;BME280;66069;51.164;-114.452;2022-12-31T16:32:02;86482.34;;;17.69;41.20
65019;BME280;66069;51.164;-114.452;2022-12-31T16:34:35;86511.31;;;17.85;41.16
65019;BME280;66069;51.164;-114.452;2022-12-31T16:37:06;86498.91;;;17.73;40.96
65019;BME280;66069;51.164;-114.452;2022-12-31T16:40:05;86525.75;;;17.84;41.00
65019;BME280;66069;51.164;-114.452;2022-12-31T16:42:37;86523.84;;;17.85;40.80
65019;BME280;66069;51.164;-114.452;2022-12-31T16:45:17;86518.66;;;17.81;40.80
65019;BME280;66069;51.164;-114.452;2022-12-31T16:47:44;86532.09;;;17.87;41.00
65019;BME280;66069;51.164;-114.452;2022-12-31T16:50:16;86524.09;;;17.78;40.97
65019;BME280;66069;51.164;-114.452;2022-12-31T16:52:48;86532.97;;;17.84;41.03
65019;BME280;66069;51.164;-114.452;2022-12-31T16:55:26;86539.75;;;17.85;41.04
65019;BME280;66069;51.164;-114.452;2022-12-31T16:58:00;86535.88;;;17.77;41.07
65019;BME280;66069;51.164;-114.452;2022-12-31T17:00:27;86551.09;;;17.85;41.06
65019;BME280;66069;51.164;-114.452;2022-12-31T17:05:27;86522.84;;;17.69;40.95
65019;BME280;66069;51.164;-114.452;2022-12-31T17:07:54;86566.13;;;17.88;41.02
65019;BME280;66069;51.164;-114.452;2022-12-31T17:12:58;86571.41;;;17.88;41.06
65019;BME280;66069;51.164;-114.452;2022-12-31T17:15:27;86559.47;;;17.84;41.31
65019;BME280;66069;51.164;-114.452;2022-12-31T17:17:57;86557.84;;;17.77;41.24
65019;BME280;66069;51.164;-114.452;2022-12-31T17:20:29;86580.56;;;17.87;41.22
65019;BME280;66069;51.164;-114.452;2022-12-31T17:23:07;86575.41;;;17.84;41.11
65019;BME280;66069;51.164;-114.452;2022-12-31T17:25:35;86588.38;;;17.91;41.23
65019;BME280;66069;51.164;-114.452;2022-12-31T17:28:23;86590.31;;;17.90;41.25